Terminal Aerodrome Forecast
Issued by NWS Sioux Falls, SD

Home | Current Version | Previous Version | Text Only | Print | Product List | Glossary On
Versions: 1 2 3 4 5 6 7 8 9 10 11 12 13 14 15
157
FTUS43 KFSD 131431 AAA
TAFHON
TAF AMD
KHON 131431Z 1315/1412 33025G33KT P6SM SCT020 BKN030
     FM131900 33025G36KT P6SM BKN025
     FM132300 34017G25KT P6SM BKN025
     FM140200 33010KT P6SM BKN035
     FM141000 29006KT P6SM BKN050=

USA.gov is the U.S. government's official web portal to all federal, state and local government web resources and services.